sensor_id;sensor_type;location;lat;lon;timestamp;P1;durP1;ratioP1;P2;durP2;ratioP2
12312;SDS011;6220;53.580;9.758;2023-08-24T00:00:40;5.87;;;3.13;;
12312;SDS011;6220;53.580;9.758;2023-08-24T00:03:06;6.20;;;3.37;;
12312;SDS011;6220;53.580;9.758;2023-08-24T00:05:34;5.43;;;3.00;;
12312;SDS011;6220;53.580;9.758;2023-08-24T00:08:01;6.80;;;3.00;;
12312;SDS011;6220;53.580;9.758;2023-08-24T00:10:30;6.70;;;3.20;;
12312;SDS011;6220;53.580;9.758;2023-08-24T00:12:57;6.87;;;2.80;;
12312;SDS011;6220;53.580;9.758;2023-08-24T00:15:22;8.63;;;3.70;;
12312;SDS011;6220;53.580;9.758;2023-08-24T00:17:47;6.43;;;3.10;;
12312;SDS011;6220;53.580;9.758;2023-08-24T00:20:13;4.10;;;3.10;;
12312;SDS011;6220;53.580;9.758;2023-08-24T00:22:39;7.13;;;3.13;;
12312;SDS011;6220;53.580;9.758;2023-08-24T00:25:05;5.87;;;3.20;;
12312;SDS011;6220;53.580;9.758;2023-08-24T00:27:31;4.40;;;3.20;;
12312;SDS011;6220;53.580;9.758;2023-08-24T00:29:57;6.27;;;3.30;;
12312;SDS011;6220;53.580;9.758;2023-08-24T00:32:22;5.30;;;3.17;;
12312;SDS011;6220;53.580;9.758;2023-08-24T00:34:48;9.03;;;3.27;;
12312;SDS011;6220;53.580;9.758;2023-08-24T00:37:13;7.97;;;4.53;;
12312;SDS011;6220;53.580;9.758;2023-08-24T00:39:40;6.37;;;3.80;;
12312;SDS011;6220;53.580;9.758;2023-08-24T00:42:06;6.93;;;3.37;;
12312;SDS011;6220;53.580;9.758;2023-08-24T00:44:31;6.10;;;3.23;;
12312;SDS011;6220;53.580;9.758;2023-08-24T00:46:57;4.47;;;2.73;;
12312;SDS011;6220;53.580;9.758;2023-08-24T00:49:23;7.57;;;3.57;;
12312;SDS011;6220;53.580;9.758;2023-08-24T00:51:49;4.93;;;2.90;;
12312;SDS011;6220;53.580;9.758;2023-08-24T00:54:15;5.50;;;3.30;;
12312;SDS011;6220;53.580;9.758;2023-08-24T00:56:42;5.37;;;3.00;;
12312;SDS011;6220;53.580;9.758;2023-08-24T00:59:08;4.40;;;3.00;;
12312;SDS011;6220;53.580;9.758;2023-08-24T01:01:33;7.07;;;3.30;;
12312;SDS011;6220;53.580;9.758;2023-08-24T01:03:59;5.93;;;3.00;;
12312;SDS011;6220;53.580;9.758;2023-08-24T01:06:24;3.97;;;2.70;;
12312;SDS011;6220;53.580;9.758;2023-08-24T01:08:50;6.07;;;3.13;;
12312;SDS011;6220;53.580;9.758;2023-08-24T01:16:54;6.50;;;2.90;;
12312;SDS011;6220;53.580;9.758;2023-08-24T01:22:08;4.20;;;2.97;;
12312;SDS011;6220;53.580;9.758;2023-08-24T01:24:45;5.27;;;3.67;;
12312;SDS011;6220;53.580;9.758;2023-08-24T01:27:13;4.83;;;2.77;;
12312;SDS011;6220;53.580;9.758;2023-08-24T01:29:39;5.30;;;3.37;;
12312;SDS011;6220;53.580;9.758;2023-08-24T01:32:05;6.80;;;3.90;;
12312;SDS011;6220;53.580;9.758;2023-08-24T01:34:36;6.20;;;3.47;;
12312;SDS011;6220;53.580;9.758;2023-08-24T01:37:03;4.00;;;3.00;;
12312;SDS011;6220;53.580;9.758;2023-08-24T01:39:29;4.73;;;3.00;;
12312;SDS011;6220;53.580;9.758;2023-08-24T01:41:59;5.47;;;2.93;;
12312;SDS011;6220;53.580;9.758;2023-08-24T01:44:26;4.37;;;3.00;;
12312;SDS011;6220;53.580;9.758;2023-08-24T01:46:52;5.57;;;3.43;;
12312;SDS011;6220;53.580;9.758;2023-08-24T01:49:19;6.17;;;3.17;;
12312;SDS011;6220;53.580;9.758;2023-08-24T01:51:45;4.03;;;2.70;;
12312;SDS011;6220;53.580;9.758;2023-08-24T01:54:12;4.37;;;2.93;;
12312;SDS011;6220;53.580;9.758;2023-08-24T01:56:38;3.30;;;2.90;;
12312;SDS011;6220;53.580;9.758;2023-08-24T01:59:03;6.27;;;2.97;;
12312;SDS011;6220;53.580;9.758;2023-08-24T02:01:28;4.60;;;3.17;;
12312;SDS011;6220;53.580;9.758;2023-08-24T02:03:53;6.73;;;3.37;;
12312;SDS011;6220;53.580;9.758;2023-08-24T02:06:19;5.73;;;3.20;;
12312;SDS011;6220;53.580;9.758;2023-08-24T02:08:46;3.43;;;2.90;;
12312;SDS011;6220;53.580;9.758;2023-08-24T02:11:12;4.23;;;2.70;;
12312;SDS011;6220;53.580;9.758;2023-08-24T02:13:38;5.27;;;2.77;;
12312;SDS011;6220;53.580;9.758;2023-08-24T02:16:07;4.40;;;2.80;;
12312;SDS011;6220;53.580;9.758;2023-08-24T02:18:37;3.40;;;2.50;;
12312;SDS011;6220;53.580;9.758;2023-08-24T02:21:09;4.73;;;2.73;;
12312;SDS011;6220;53.580;9.758;2023-08-24T02:23:36;3.17;;;2.43;;
12312;SDS011;6220;53.580;9.758;2023-08-24T02:26:02;3.73;;;2.50;;
12312;SDS011;6220;53.580;9.758;2023-08-24T02:28:28;3.53;;;2.27;;
12312;SDS011;6220;53.580;9.758;2023-08-24T02:30:53;3.50;;;2.40;;
12312;SDS011;6220;53.580;9.758;2023-08-24T02:33:19;4.30;;;2.93;;
12312;SDS011;6220;53.580;9.758;2023-08-24T02:35:46;6.47;;;3.57;;
12312;SDS011;6220;53.580;9.758;2023-08-24T02:38:12;3.73;;;2.67;;
12312;SDS011;6220;53.580;9.758;2023-08-24T02:40:38;4.40;;;2.40;;
12312;SDS011;6220;53.580;9.758;2023-08-24T02:43:03;3.20;;;2.57;;
12312;SDS011;6220;53.580;9.758;2023-08-24T02:45:28;4.63;;;2.97;;
12312;SDS011;6220;53.580;9.758;2023-08-24T02:47:54;3.37;;;2.60;;
12312;SDS011;6220;53.580;9.758;2023-08-24T02:50:19;4.23;;;3.20;;
12312;SDS011;6220;53.580;9.758;2023-08-24T02:52:44;4.73;;;2.83;;
12312;SDS011;6220;53.580;9.758;2023-08-24T02:55:10;3.30;;;2.97;;
12312;SDS011;6220;53.580;9.758;2023-08-24T02:57:36;3.03;;;2.73;;
12312;SDS011;6220;53.580;9.758;2023-08-24T03:00:02;5.47;;;2.83;;
12312;SDS011;6220;53.580;9.758;2023-08-24T03:02:28;3.73;;;3.03;;
12312;SDS011;6220;53.580;9.758;2023-08-24T03:04:54;5.33;;;2.77;;
12312;SDS011;6220;53.580;9.758;2023-08-24T03:07:20;5.17;;;2.97;;
12312;SDS011;6220;53.580;9.758;2023-08-24T03:09:45;3.83;;;2.90;;
12312;SDS011;6220;53.580;9.758;2023-08-24T03:12:11;5.80;;;2.90;;
12312;SDS011;6220;53.580;9.758;2023-08-24T03:14:37;4.17;;;2.80;;
12312;SDS011;6220;53.580;9.758;2023-08-24T03:17:02;4.10;;;2.60;;
12312;SDS011;6220;53.580;9.758;2023-08-24T03:19:29;5.57;;;3.20;;
12312;SDS011;6220;53.580;9.758;2023-08-24T03:21:55;5.00;;;3.33;;
12312;SDS011;6220;53.580;9.758;2023-08-24T03:24:20;5.00;;;2.97;;
12312;SDS011;6220;53.580;9.758;2023-08-24T03:26:45;7.13;;;3.17;;
12312;SDS011;6220;53.580;9.758;2023-08-24T03:29:11;3.60;;;2.80;;
12312;SDS011;6220;53.580;9.758;2023-08-24T03:31:37;4.70;;;3.30;;
12312;SDS011;6220;53.580;9.758;2023-08-24T03:34:02;6.50;;;3.60;;
12312;SDS011;6220;53.580;9.758;2023-08-24T03:36:29;7.37;;;3.07;;
12312;SDS011;6220;53.580;9.758;2023-08-24T03:38:54;3.73;;;2.93;;
12312;SDS011;6220;53.580;9.758;2023-08-24T03:41:19;4.60;;;2.83;;
12312;SDS011;6220;53.580;9.758;2023-08-24T03:43:45;5.03;;;3.33;;
12312;SDS011;6220;53.580;9.758;2023-08-24T03:46:11;4.77;;;3.07;;
12312;SDS011;6220;53.580;9.758;2023-08-24T03:48:36;5.40;;;3.10;;
12312;SDS011;6220;53.580;9.758;2023-08-24T03:51:01;4.63;;;3.53;;
12312;SDS011;6220;53.580;9.758;2023-08-24T03:53:27;5.07;;;3.50;;
12312;SDS011;6220;53.580;9.758;2023-08-24T03:55:52;4.63;;;3.53;;
12312;SDS011;6220;53.580;9.758;2023-08-24T03:58:20;4.67;;;3.53;;
12312;SDS011;6220;53.580;9.758;2023-08-24T04:00:45;4.00;;;3.17;;
12312;SDS011;6220;53.580;9.758;2023-08-24T04:03:11;3.57;;;3.23;;
12312;SDS011;6220;53.580;9.758;2023-08-24T04:05:37;6.57;;;3.90;;
12312;SDS011;6220;53.580;9.758;2023-08-24T04:08:02;3.93;;;3.20;;
12312;SDS011;6220;53.580;9.758;2023-08-24T04:10:29;5.60;;;3.63;;
12312;SDS011;6220;53.580;9.758;2023-08-24T04:12:55;5.23;;;3.77;;
12312;SDS011;6220;53.580;9.758;2023-08-24T04:15:20;3.60;;;3.30;;
12312;SDS011;6220;53.580;9.758;2023-08-24T04:17:45;4.93;;;4.10;;
12312;SDS011;6220;53.580;9.758;2023-08-24T04:20:11;5.97;;;4.03;;
12312;SDS011;6220;53.580;9.758;2023-08-24T04:22:36;4.33;;;3.70;;
12312;SDS011;6220;53.580;9.758;2023-08-24T04:25:02;5.43;;;4.07;;
12312;SDS011;6220;53.580;9.758;2023-08-24T04:27:27;5.23;;;3.90;;
12312;SDS011;6220;53.580;9.758;2023-08-24T04:29:53;4.67;;;3.67;;
12312;SDS011;6220;53.580;9.758;2023-08-24T04:32:19;4.83;;;4.20;;
12312;SDS011;6220;53.580;9.758;2023-08-24T04:34:44;5.87;;;4.27;;
12312;SDS011;6220;53.580;9.758;2023-08-24T04:37:09;5.60;;;4.70;;
12312;SDS011;6220;53.580;9.758;2023-08-24T04:39:35;5.83;;;5.00;;
12312;SDS011;6220;53.580;9.758;2023-08-24T04:42:00;6.07;;;5.40;;
12312;SDS011;6220;53.580;9.758;2023-08-24T04:44:27;6.07;;;5.20;;
12312;SDS011;6220;53.580;9.758;2023-08-24T04:46:52;7.00;;;5.27;;
12312;SDS011;6220;53.580;9.758;2023-08-24T04:49:18;7.27;;;5.97;;
12312;SDS011;6220;53.580;9.758;2023-08-24T04:51:43;7.80;;;5.90;;
12312;SDS011;6220;53.580;9.758;2023-08-24T04:54:08;6.93;;;6.10;;
12312;SDS011;6220;53.580;9.758;2023-08-24T04:56:34;6.20;;;5.60;;
12312;SDS011;6220;53.580;9.758;2023-08-24T04:59:00;9.60;;;8.30;;
12312;SDS011;6220;53.580;9.758;2023-08-24T05:01:27;9.60;;;8.20;;
12312;SDS011;6220;53.580;9.758;2023-08-24T05:03:53;7.93;;;6.33;;
12312;SDS011;6220;53.580;9.758;2023-08-24T05:06:19;7.13;;;5.60;;
12312;SDS011;6220;53.580;9.758;2023-08-24T05:08:46;6.50;;;5.47;;
12312;SDS011;6220;53.580;9.758;2023-08-24T05:11:17;6.23;;;5.40;;
12312;SDS011;6220;53.580;9.758;2023-08-24T05:13:43;5.77;;;5.20;;
12312;SDS011;6220;53.580;9.758;2023-08-24T05:16:09;7.47;;;6.13;;
12312;SDS011;6220;53.580;9.758;2023-08-24T05:18:35;7.67;;;6.30;;
12312;SDS011;6220;53.580;9.758;2023-08-24T05:21:04;6.20;;;5.60;;
12312;SDS011;6220;53.580;9.758;2023-08-24T05:26:35;7.83;;;5.63;;
12312;SDS011;6220;53.580;9.758;2023-08-24T05:29:00;7.53;;;6.67;;
12312;SDS011;6220;53.580;9.758;2023-08-24T05:31:25;8.73;;;6.37;;
12312;SDS011;6220;53.580;9.758;2023-08-24T05:33:51;7.07;;;6.47;;
12312;SDS011;6220;53.580;9.758;2023-08-24T05:36:16;7.80;;;5.53;;
12312;SDS011;6220;53.580;9.758;2023-08-24T05:38:41;7.17;;;5.43;;
12312;SDS011;6220;53.580;9.758;2023-08-24T05:41:11;7.80;;;6.03;;
12312;SDS011;6220;53.580;9.758;2023-08-24T05:43:37;8.80;;;5.70;;
12312;SDS011;6220;53.580;9.758;2023-08-24T05:46:03;6.30;;;5.60;;
12312;SDS011;6220;53.580;9.758;2023-08-24T05:48:29;7.87;;;5.63;;
12312;SDS011;6220;53.580;9.758;2023-08-24T05:50:57;6.20;;;5.43;;
12312;SDS011;6220;53.580;9.758;2023-08-24T05:53:26;5.30;;;4.40;;
12312;SDS011;6220;53.580;9.758;2023-08-24T05:55:51;6.73;;;4.17;;
12312;SDS011;6220;53.580;9.758;2023-08-24T05:58:16;5.97;;;4.30;;
12312;SDS011;6220;53.580;9.758;2023-08-24T06:00:42;6.40;;;3.97;;
12312;SDS011;6220;53.580;9.758;2023-08-24T06:03:07;6.40;;;3.90;;
12312;SDS011;6220;53.580;9.758;2023-08-24T06:05:32;7.30;;;4.10;;
12312;SDS011;6220;53.580;9.758;2023-08-24T06:07:58;7.37;;;3.70;;
12312;SDS011;6220;53.580;9.758;2023-08-24T06:10:24;5.63;;;3.10;;
12312;SDS011;6220;53.580;9.758;2023-08-24T06:12:51;4.83;;;2.67;;
12312;SDS011;6220;53.580;9.758;2023-08-24T06:15:16;7.57;;;3.03;;
12312;SDS011;6220;53.580;9.758;2023-08-24T06:17:44;4.80;;;2.90;;
12312;SDS011;6220;53.580;9.758;2023-08-24T06:20:12;7.10;;;3.00;;
12312;SDS011;6220;53.580;9.758;2023-08-24T06:22:37;5.93;;;2.50;;
12312;SDS011;6220;53.580;9.758;2023-08-24T06:25:03;7.00;;;2.37;;
12312;SDS011;6220;53.580;9.758;2023-08-24T06:27:30;4.43;;;2.20;;
12312;SDS011;6220;53.580;9.758;2023-08-24T06:29:55;5.23;;;2.33;;
12312;SDS011;6220;53.580;9.758;2023-08-24T06:32:20;4.03;;;2.00;;
12312;SDS011;6220;53.580;9.758;2023-08-24T06:34:46;5.40;;;1.87;;
12312;SDS011;6220;53.580;9.758;2023-08-24T06:37:12;4.00;;;1.87;;
12312;SDS011;6220;53.580;9.758;2023-08-24T06:39:37;4.13;;;1.83;;
12312;SDS011;6220;53.580;9.758;2023-08-24T06:42:02;4.10;;;1.80;;
12312;SDS011;6220;53.580;9.758;2023-08-24T06:44:28;4.40;;;1.60;;
12312;SDS011;6220;53.580;9.758;2023-08-24T06:46:53;2.50;;;1.30;;
12312;SDS011;6220;53.580;9.758;2023-08-24T06:49:18;3.63;;;1.43;;
12312;SDS011;6220;53.580;9.758;2023-08-24T06:51:45;3.40;;;1.30;;
12312;SDS011;6220;53.580;9.758;2023-08-24T06:54:10;3.23;;;1.20;;
12312;SDS011;6220;53.580;9.758;2023-08-24T06:56:35;4.23;;;1.30;;
12312;SDS011;6220;53.580;9.758;2023-08-24T06:59:01;4.23;;;1.37;;
12312;SDS011;6220;53.580;9.758;2023-08-24T07:01:26;3.40;;;1.67;;
12312;SDS011;6220;53.580;9.758;2023-08-24T07:03:51;7.83;;;2.00;;
12312;SDS011;6220;53.580;9.758;2023-08-24T07:06:17;3.73;;;1.70;;
12312;SDS011;6220;53.580;9.758;2023-08-24T07:08:42;8.53;;;1.80;;
12312;SDS011;6220;53.580;9.758;2023-08-24T07:11:08;3.80;;;1.63;;
12312;SDS011;6220;53.580;9.758;2023-08-24T07:13:33;2.60;;;1.40;;
12312;SDS011;6220;53.580;9.758;2023-08-24T07:15:59;4.70;;;1.97;;
12312;SDS011;6220;53.580;9.758;2023-08-24T07:18:25;4.37;;;1.60;;
12312;SDS011;6220;53.580;9.758;2023-08-24T07:20:51;2.83;;;1.50;;
12312;SDS011;6220;53.580;9.758;2023-08-24T07:23:16;3.27;;;1.70;;
12312;SDS011;6220;53.580;9.758;2023-08-24T07:25:41;3.33;;;1.53;;
12312;SDS011;6220;53.580;9.758;2023-08-24T07:28:08;2.83;;;1.40;;
12312;SDS011;6220;53.580;9.758;2023-08-24T07:30:34;5.53;;;1.77;;
12312;SDS011;6220;53.580;9.758;2023-08-24T07:33:01;4.57;;;1.93;;
12312;SDS011;6220;53.580;9.758;2023-08-24T07:35:28;3.27;;;1.70;;
12312;SDS011;6220;53.580;9.758;2023-08-24T07:37:53;4.07;;;1.80;;
12312;SDS011;6220;53.580;9.758;2023-08-24T07:40:19;6.27;;;1.80;;
12312;SDS011;6220;53.580;9.758;2023-08-24T07:42:48;3.63;;;1.50;;
12312;SDS011;6220;53.580;9.758;2023-08-24T07:45:15;3.37;;;1.80;;
12312;SDS011;6220;53.580;9.758;2023-08-24T07:47:42;6.17;;;1.77;;
12312;SDS011;6220;53.580;9.758;2023-08-24T07:50:08;4.43;;;1.90;;
12312;SDS011;6220;53.580;9.758;2023-08-24T07:52:36;3.83;;;1.90;;
12312;SDS011;6220;53.580;9.758;2023-08-24T07:55:02;4.90;;;1.90;;
12312;SDS011;6220;53.580;9.758;2023-08-24T07:57:29;4.63;;;1.93;;
12312;SDS011;6220;53.580;9.758;2023-08-24T07:59:57;3.70;;;1.80;;
12312;SDS011;6220;53.580;9.758;2023-08-24T08:02:23;3.93;;;2.07;;
12312;SDS011;6220;53.580;9.758;2023-08-24T08:04:48;3.23;;;2.00;;
12312;SDS011;6220;53.580;9.758;2023-08-24T08:07:13;3.03;;;1.80;;
12312;SDS011;6220;53.580;9.758;2023-08-24T08:09:39;3.73;;;1.77;;
12312;SDS011;6220;53.580;9.758;2023-08-24T08:12:04;5.73;;;2.07;;
12312;SDS011;6220;53.580;9.758;2023-08-24T08:14:30;5.77;;;2.30;;
12312;SDS011;6220;53.580;9.758;2023-08-24T08:16:58;3.23;;;1.67;;
12312;SDS011;6220;53.580;9.758;2023-08-24T08:19:24;3.17;;;1.30;;
12312;SDS011;6220;53.580;9.758;2023-08-24T08:21:51;5.20;;;1.70;;
12312;SDS011;6220;53.580;9.758;2023-08-24T08:24:17;2.77;;;1.40;;
12312;SDS011;6220;53.580;9.758;2023-08-24T08:26:42;3.50;;;1.70;;
12312;SDS011;6220;53.580;9.758;2023-08-24T08:29:08;4.20;;;1.70;;
12312;SDS011;6220;53.580;9.758;2023-08-24T08:31:33;3.00;;;1.47;;
12312;SDS011;6220;53.580;9.758;2023-08-24T08:33:58;2.97;;;1.73;;
12312;SDS011;6220;53.580;9.758;2023-08-24T08:36:24;2.70;;;1.60;;
12312;SDS011;6220;53.580;9.758;2023-08-24T08:38:51;2.60;;;1.50;;
12312;SDS011;6220;53.580;9.758;2023-08-24T08:41:17;4.07;;;1.60;;
12312;SDS011;6220;53.580;9.758;2023-08-24T08:43:48;3.47;;;1.63;;
12312;SDS011;6220;53.580;9.758;2023-08-24T08:46:13;4.27;;;2.03;;
12312;SDS011;6220;53.580;9.758;2023-08-24T08:48:40;4.97;;;2.70;;
12312;SDS011;6220;53.580;9.758;2023-08-24T08:51:07;3.73;;;2.50;;
12312;SDS011;6220;53.580;9.758;2023-08-24T08:53:34;3.67;;;2.10;;
12312;SDS011;6220;53.580;9.758;2023-08-24T08:55:59;5.53;;;2.40;;
12312;SDS011;6220;53.580;9.758;2023-08-24T08:58:28;5.53;;;2.20;;
12312;SDS011;6220;53.580;9.758;2023-08-24T09:00:54;4.83;;;2.20;;
12312;SDS011;6220;53.580;9.758;2023-08-24T09:03:20;3.20;;;2.00;;
12312;SDS011;6220;53.580;9.758;2023-08-24T09:05:46;9.60;;;3.07;;
12312;SDS011;6220;53.580;9.758;2023-08-24T09:08:17;4.80;;;2.10;;
12312;SDS011;6220;53.580;9.758;2023-08-24T09:10:42;5.30;;;2.33;;
12312;SDS011;6220;53.580;9.758;2023-08-24T09:13:10;5.40;;;2.10;;
12312;SDS011;6220;53.580;9.758;2023-08-24T09:15:44;5.40;;;2.40;;
12312;SDS011;6220;53.580;9.758;2023-08-24T09:18:10;6.80;;;2.43;;
12312;SDS011;6220;53.580;9.758;2023-08-24T09:20:35;4.33;;;2.37;;
12312;SDS011;6220;53.580;9.758;2023-08-24T09:23:01;5.80;;;2.10;;
12312;SDS011;6220;53.580;9.758;2023-08-24T09:25:27;3.17;;;2.00;;
12312;SDS011;6220;53.580;9.758;2023-08-24T09:27:57;6.10;;;2.67;;
12312;SDS011;6220;53.580;9.758;2023-08-24T09:30:36;4.27;;;2.20;;
12312;SDS011;6220;53.580;9.758;2023-08-24T09:33:03;6.43;;;2.90;;
12312;SDS011;6220;53.580;9.758;2023-08-24T09:35:35;7.43;;;2.60;;
12312;SDS011;6220;53.580;9.758;2023-08-24T09:38:15;6.20;;;2.40;;
12312;SDS011;6220;53.580;9.758;2023-08-24T09:40:50;3.87;;;2.27;;
12312;SDS011;6220;53.580;9.758;2023-08-24T09:43:16;4.20;;;2.57;;
12312;SDS011;6220;53.580;9.758;2023-08-24T09:45:55;4.63;;;3.00;;
12312;SDS011;6220;53.580;9.758;2023-08-24T09:48:23;5.90;;;3.03;;
12312;SDS011;6220;53.580;9.758;2023-08-24T09:50:49;4.63;;;3.13;;
12312;SDS011;6220;53.580;9.758;2023-08-24T09:53:17;6.17;;;2.43;;
12312;SDS011;6220;53.580;9.758;2023-08-24T09:55:59;5.37;;;2.90;;
12312;SDS011;6220;53.580;9.758;2023-08-24T09:58:25;6.27;;;2.57;;
12312;SDS011;6220;53.580;9.758;2023-08-24T10:00:52;9.10;;;3.10;;
12312;SDS011;6220;53.580;9.758;2023-08-24T10:03:21;4.67;;;3.03;;
12312;SDS011;6220;53.580;9.758;2023-08-24T10:05:56;5.77;;;2.63;;
12312;SDS011;6220;53.580;9.758;2023-08-24T10:08:26;6.03;;;3.20;;
12312;SDS011;6220;53.580;9.758;2023-08-24T10:10:53;5.90;;;3.07;;
12312;SDS011;6220;53.580;9.758;2023-08-24T10:13:23;6.20;;;2.70;;
12312;SDS011;6220;53.580;9.758;2023-08-24T10:16:09;8.17;;;2.80;;
12312;SDS011;6220;53.580;9.758;2023-08-24T10:18:38;6.80;;;2.67;;
12312;SDS011;6220;53.580;9.758;2023-08-24T10:21:05;4.93;;;2.70;;
12312;SDS011;6220;53.580;9.758;2023-08-24T10:23:31;4.03;;;2.90;;
12312;SDS011;6220;53.580;9.758;2023-08-24T10:25:56;8.00;;;2.83;;
12312;SDS011;6220;53.580;9.758;2023-08-24T10:28:23;5.63;;;2.50;;
12312;SDS011;6220;53.580;9.758;2023-08-24T10:30:52;7.43;;;2.93;;
12312;SDS011;6220;53.580;9.758;2023-08-24T10:33:17;5.43;;;3.07;;
12312;SDS011;6220;53.580;9.758;2023-08-24T10:35:43;4.37;;;2.43;;
12312;SDS011;6220;53.580;9.758;2023-08-24T10:38:22;6.17;;;2.50;;
12312;SDS011;6220;53.580;9.758;2023-08-24T10:40:49;6.10;;;2.90;;
12312;SDS011;6220;53.580;9.758;2023-08-24T10:43:15;7.20;;;2.80;;
12312;SDS011;6220;53.580;9.758;2023-08-24T10:46:00;5.00;;;3.03;;
12312;SDS011;6220;53.580;9.758;2023-08-24T10:48:30;7.07;;;2.80;;
12312;SDS011;6220;53.580;9.758;2023-08-24T10:51:16;6.43;;;2.70;;
12312;SDS011;6220;53.580;9.758;2023-08-24T10:53:53;4.33;;;2.27;;
12312;SDS011;6220;53.580;9.758;2023-08-24T10:56:20;5.53;;;2.53;;
12312;SDS011;6220;53.580;9.758;2023-08-24T10:59:09;3.57;;;2.80;;
12312;SDS011;6220;53.580;9.758;2023-08-24T11:01:38;7.97;;;2.97;;
12312;SDS011;6220;53.580;9.758;2023-08-24T11:04:04;5.20;;;3.00;;
12312;SDS011;6220;53.580;9.758;2023-08-24T11:06:30;3.67;;;2.40;;
12312;SDS011;6220;53.580;9.758;2023-08-24T11:09:06;5.33;;;2.73;;
12312;SDS011;6220;53.580;9.758;2023-08-24T11:11:38;5.93;;;2.67;;
12312;SDS011;6220;53.580;9.758;2023-08-24T11:14:20;5.97;;;2.97;;
12312;SDS011;6220;53.580;9.758;2023-08-24T11:16:50;5.40;;;2.40;;
12312;SDS011;6220;53.580;9.758;2023-08-24T11:19:16;6.37;;;3.47;;
12312;SDS011;6220;53.580;9.758;2023-08-24T11:21:42;5.13;;;2.90;;
12312;SDS011;6220;53.580;9.758;2023-08-24T11:24:09;4.50;;;3.23;;
12312;SDS011;6220;53.580;9.758;2023-08-24T11:26:39;5.20;;;2.73;;
12312;SDS011;6220;53.580;9.758;2023-08-24T11:29:09;5.33;;;3.57;;
12312;SDS011;6220;53.580;9.758;2023-08-24T11:31:35;6.73;;;3.00;;
12312;SDS011;6220;53.580;9.758;2023-08-24T11:34:01;8.93;;;3.93;;
12312;SDS011;6220;53.580;9.758;2023-08-24T11:36:27;9.10;;;3.60;;
12312;SDS011;6220;53.580;9.758;2023-08-24T11:38:57;7.33;;;3.53;;
12312;SDS011;6220;53.580;9.758;2023-08-24T11:41:24;3.90;;;2.87;;
12312;SDS011;6220;53.580;9.758;2023-08-24T11:43:57;6.67;;;2.83;;
12312;SDS011;6220;53.580;9.758;2023-08-24T11:46:24;7.00;;;3.43;;
12312;SDS011;6220;53.580;9.758;2023-08-24T11:48:50;4.63;;;2.90;;
12312;SDS011;6220;53.580;9.758;2023-08-24T11:51:16;8.60;;;3.60;;
12312;SDS011;6220;53.580;9.758;2023-08-24T11:53:43;5.83;;;3.10;;
12312;SDS011;6220;53.580;9.758;2023-08-24T11:56:10;4.53;;;3.20;;
12312;SDS011;6220;53.580;9.758;2023-08-24T11:58:38;7.37;;;3.40;;
12312;SDS011;6220;53.580;9.758;2023-08-24T12:01:07;4.80;;;2.97;;
12312;SDS011;6220;53.580;9.758;2023-08-24T12:03:38;5.40;;;2.97;;
12312;SDS011;6220;53.580;9.758;2023-08-24T12:06:12;5.60;;;2.77;;
12312;SDS011;6220;53.580;9.758;2023-08-24T12:08:41;7.07;;;2.83;;
12312;SDS011;6220;53.580;9.758;2023-08-24T12:11:15;6.57;;;3.10;;
12312;SDS011;6220;53.580;9.758;2023-08-24T12:13:59;4.93;;;2.30;;
12312;SDS011;6220;53.580;9.758;2023-08-24T12:16:25;7.47;;;3.10;;
12312;SDS011;6220;53.580;9.758;2023-08-24T12:18:55;4.90;;;2.40;;
12312;SDS011;6220;53.580;9.758;2023-08-24T12:21:25;7.33;;;2.50;;
12312;SDS011;6220;53.580;9.758;2023-08-24T12:26:23;5.20;;;2.50;;
12312;SDS011;6220;53.580;9.758;2023-08-24T12:28:49;5.83;;;2.90;;
12312;SDS011;6220;53.580;9.758;2023-08-24T12:31:18;6.37;;;3.17;;
12312;SDS011;6220;53.580;9.758;2023-08-24T12:33:44;5.17;;;3.13;;
12312;SDS011;6220;53.580;9.758;2023-08-24T12:36:10;4.20;;;2.90;;
12312;SDS011;6220;53.580;9.758;2023-08-24T12:38:36;6.73;;;3.00;;
12312;SDS011;6220;53.580;9.758;2023-08-24T12:41:01;6.60;;;2.73;;
12312;SDS011;6220;53.580;9.758;2023-08-24T12:43:27;5.70;;;3.10;;
12312;SDS011;6220;53.580;9.758;2023-08-24T12:45:53;6.20;;;3.30;;
12312;SDS011;6220;53.580;9.758;2023-08-24T12:48:18;5.67;;;2.30;;
12312;SDS011;6220;53.580;9.758;2023-08-24T12:50:44;6.67;;;3.00;;
12312;SDS011;6220;53.580;9.758;2023-08-24T12:53:09;5.10;;;2.57;;
12312;SDS011;6220;53.580;9.758;2023-08-24T12:55:38;4.83;;;2.50;;
12312;SDS011;6220;53.580;9.758;2023-08-24T12:58:04;3.63;;;3.10;;
12312;SDS011;6220;53.580;9.758;2023-08-24T13:00:30;4.33;;;2.60;;
12312;SDS011;6220;53.580;9.758;2023-08-24T13:02:57;7.23;;;2.73;;
12312;SDS011;6220;53.580;9.758;2023-08-24T13:05:22;3.43;;;2.67;;
12312;SDS011;6220;53.580;9.758;2023-08-24T13:07:49;7.17;;;2.77;;
12312;SDS011;6220;53.580;9.758;2023-08-24T13:10:16;4.40;;;2.40;;
12312;SDS011;6220;53.580;9.758;2023-08-24T13:12:41;6.47;;;3.10;;
12312;SDS011;6220;53.580;9.758;2023-08-24T13:15:07;9.10;;;3.40;;
12312;SDS011;6220;53.580;9.758;2023-08-24T13:17:33;5.17;;;2.93;;
12312;SDS011;6220;53.580;9.758;2023-08-24T13:19:58;4.17;;;3.43;;
12312;SDS011;6220;53.580;9.758;2023-08-24T13:22:24;8.20;;;3.47;;
12312;SDS011;6220;53.580;9.758;2023-08-24T13:24:50;7.70;;;3.60;;
12312;SDS011;6220;53.580;9.758;2023-08-24T13:27:15;5.53;;;3.00;;
12312;SDS011;6220;53.580;9.758;2023-08-24T13:29:41;4.67;;;2.97;;
12312;SDS011;6220;53.580;9.758;2023-08-24T13:32:15;3.87;;;3.10;;
12312;SDS011;6220;53.580;9.758;2023-08-24T13:34:41;4.40;;;3.00;;
12312;SDS011;6220;53.580;9.758;2023-08-24T13:37:06;5.93;;;3.03;;
12312;SDS011;6220;53.580;9.758;2023-08-24T13:39:32;10.33;;;3.57;;
12312;SDS011;6220;53.580;9.758;2023-08-24T13:41:58;6.83;;;3.30;;
12312;SDS011;6220;53.580;9.758;2023-08-24T13:44:24;4.50;;;2.57;;
12312;SDS011;6220;53.580;9.758;2023-08-24T13:46:49;8.60;;;3.17;;
12312;SDS011;6220;53.580;9.758;2023-08-24T13:49:16;4.40;;;3.20;;
12312;SDS011;6220;53.580;9.758;2023-08-24T13:51:45;6.57;;;2.90;;
12312;SDS011;6220;53.580;9.758;2023-08-24T13:54:14;5.27;;;3.00;;
12312;SDS011;6220;53.580;9.758;2023-08-24T13:56:40;4.27;;;2.87;;
12312;SDS011;6220;53.580;9.758;2023-08-24T13:59:06;4.80;;;2.70;;
12312;SDS011;6220;53.580;9.758;2023-08-24T14:01:31;5.43;;;3.03;;
12312;SDS011;6220;53.580;9.758;2023-08-24T14:03:56;5.07;;;2.90;;
12312;SDS011;6220;53.580;9.758;2023-08-24T14:06:22;4.60;;;2.67;;
12312;SDS011;6220;53.580;9.758;2023-08-24T14:08:47;5.73;;;2.77;;
12312;SDS011;6220;53.580;9.758;2023-08-24T14:11:12;4.33;;;2.80;;
12312;SDS011;6220;53.580;9.758;2023-08-24T14:13:40;5.78;;;3.10;;
12312;SDS011;6220;53.580;9.758;2023-08-24T14:16:06;4.40;;;2.43;;
12312;SDS011;6220;53.580;9.758;2023-08-24T14:18:32;3.50;;;2.60;;
12312;SDS011;6220;53.580;9.758;2023-08-24T14:21:01;4.57;;;2.70;;
12312;SDS011;6220;53.580;9.758;2023-08-24T14:23:27;5.43;;;2.47;;
12312;SDS011;6220;53.580;9.758;2023-08-24T14:25:52;4.63;;;3.03;;
12312;SDS011;6220;53.580;9.758;2023-08-24T14:28:18;3.20;;;2.53;;
12312;SDS011;6220;53.580;9.758;2023-08-24T14:30:45;7.03;;;2.70;;
12312;SDS011;6220;53.580;9.758;2023-08-24T14:33:10;3.30;;;2.53;;
12312;SDS011;6220;53.580;9.758;2023-08-24T14:35:35;3.30;;;2.30;;
12312;SDS011;6220;53.580;9.758;2023-08-24T14:38:02;7.73;;;2.50;;
12312;SDS011;6220;53.580;9.758;2023-08-24T14:40:27;4.90;;;2.40;;
12312;SDS011;6220;53.580;9.758;2023-08-24T14:42:53;4.50;;;2.70;;
12312;SDS011;6220;53.580;9.758;2023-08-24T14:45:21;6.73;;;2.50;;
12312;SDS011;6220;53.580;9.758;2023-08-24T14:47:47;5.20;;;2.60;;
12312;SDS011;6220;53.580;9.758;2023-08-24T14:50:12;4.83;;;2.50;;
12312;SDS011;6220;53.580;9.758;2023-08-24T14:52:40;4.03;;;2.57;;
12312;SDS011;6220;53.580;9.758;2023-08-24T14:55:06;3.47;;;2.60;;
12312;SDS011;6220;53.580;9.758;2023-08-24T14:57:33;3.97;;;2.83;;
12312;SDS011;6220;53.580;9.758;2023-08-24T15:00:00;5.83;;;2.60;;
12312;SDS011;6220;53.580;9.758;2023-08-24T15:02:25;4.57;;;2.83;;
12312;SDS011;6220;53.580;9.758;2023-08-24T15:04:51;5.63;;;2.80;;
12312;SDS011;6220;53.580;9.758;2023-08-24T15:07:16;5.13;;;2.73;;
12312;SDS011;6220;53.580;9.758;2023-08-24T15:09:41;5.43;;;2.70;;
12312;SDS011;6220;53.580;9.758;2023-08-24T15:12:07;4.63;;;2.40;;